This is the latest recevied weather packets stored in our database for station/object DB0PDF-L4. If no packets are shown the sender has not sent any weather packets the latest 10 day(s).
| Time | Temp. | Humidity | Pressure | Rain* | Wind** | Luminosity | Snow |
|---|---|---|---|---|---|---|---|
| 1777584148 | 17.78° C | 29% | 1019 hPa | - | - | - | - |
| 1777583247 | 17.78° C | 29% | 1019 hPa | - | - | - | - |
| 1777576939 | 20.56° C | 25% | 1019 hPa | - | - | - | - |
| 1777562521 | 25.56° C | 17% | 1019 hPa | - | - | - | - |
| 1777561620 | 24.44° C | 18% | 1019 hPa | - | - | - | - |
| 1777560719 | 24.44° C | 18% | 1019 hPa | - | - | - | - |
| 1777550807 | 22.22° C | 17% | 1021 hPa | - | - | - | - |
| 1777545400 | 20.56° C | 18% | 1022 hPa | - | - | - | - |
| 1777544499 | 20° C | 18% | 1022 hPa | - | - | - | - |
| 1777543597 | 20° C | 19% | 1022 hPa | - | - | - | - |
| 1777541795 | 19.44° C | 18% | 1022 hPa | - | - | - | - |
| 1777540894 | 19.44° C | 19% | 1022 hPa | - | - | - | - |
| 1777539993 | 20° C | 18% | 1023 hPa | - | - | - | - |
| 1777538191 | 20.56° C | 18% | 1023 hPa | - | - | - | - |
| 1777537290 | 20.56° C | 18% | 1023 hPa | - | - | - | - |
| 1777536389 | 20.56° C | 18% | 1023 hPa | - | - | - | - |
| 1777534586 | 21.11° C | 18% | 1023 hPa | - | - | - | - |
| 1777533685 | 20.56° C | 18% | 1023 hPa | - | - | - | - |
| 1777532784 | 21.11° C | 20% | 1023 hPa | - | - | - | - |
| 1777531883 | 20.56° C | 22% | 1023 hPa | - | - | - | - |
| 1777530982 | 20° C | 23% | 1023 hPa | - | - | - | - |
| 1777530081 | 19.44° C | 24% | 1023 hPa | - | - | - | - |
| 1777529180 | 18.89° C | 26% | 1023 hPa | - | - | - | - |
| 1777528279 | 17.22° C | 28% | 1022 hPa | - | - | - | - |
| 1777527377 | 15.56° C | 30% | 1022 hPa | - | - | - | - |
* Rain since midnight (hover to see other rain measurements)
** Current wind speed in m/s (hover to see current wind gust speed)